KCPS/CPS METAR and TAF weather

Enter ICAO airport designator
Station Type Date Time Source
KCPS METAR 2018/12/13 14:53 UTC NOAA

KCPS 131453Z 14007KT 10SM OVC008 07/06 A2996 RMK AO2 SLP149 T00720056 52010


Station Type Date Time Source
KCPS Decoded METAR 2018/12/13 14:53 UTC NOAA

ST LOUIS DOWNTOWN AIRPORT, IL, United States (KCPS) 38-34N 090-09W 126M
Dec 13, 2018 - 09:53 AM EST / 2018.12.13 1453 UTC
Wind: from the SE (140 degrees) at 8 MPH (7 KT):0
Visibility: 10 mile(s):0
Sky conditions: overcast
Temperature: 45.0 F (7.2 C)
Dew Point: 42.1 F (5.6 C)
Relative Humidity: 89%
Pressure (altimeter): 29.96 in. Hg (1014 hPa)
Pressure tendency: 0.03 inches (1.0 hPa) higher than three hours ago
ob: KCPS 131453Z 14007KT 10SM OVC008 07/06 A2996 RMK AO2 SLP149 T00720056 52010
cycle: 15

Station Type Date Time Source
KCPS TAF 2018/12/13 14:30 UTC NOAA

TAF
AMD KCPS 131427Z 1314/1412 13007KT P6SM VCSH OVC009
FM131900 11006KT 3SM -RA BR OVC006
FM140900 02007KT 2SM -RA BR OVC004


Example: see airport list